sensor_id;sensor_type;location;lat;lon;timestamp;pressure;altitude;pressure_sealevel;temperature
77414;BMP280;66486;49.992;19.164;2023-04-08T00:00:38;98985.16;;;4.58
77414;BMP280;66486;49.992;19.164;2023-04-08T00:03:17;98979.06;;;4.54
77414;BMP280;66486;49.992;19.164;2023-04-08T00:05:44;98973.13;;;4.31
77414;BMP280;66486;49.992;19.164;2023-04-08T00:08:09;98983.47;;;4.40
77414;BMP280;66486;49.992;19.164;2023-04-08T00:10:35;98983.19;;;4.48
77414;BMP280;66486;49.992;19.164;2023-04-08T00:13:01;98978.84;;;4.33
77414;BMP280;66486;49.992;19.164;2023-04-08T00:15:27;98978.31;;;4.21
77414;BMP280;66486;49.992;19.164;2023-04-08T00:17:53;98983.38;;;4.33
77414;BMP280;66486;49.992;19.164;2023-04-08T00:20:21;98978.06;;;4.33
77414;BMP280;66486;49.992;19.164;2023-04-08T00:22:47;98984.69;;;4.16
77414;BMP280;66486;49.992;19.164;2023-04-08T00:25:13;98978.66;;;4.19
77414;BMP280;66486;49.992;19.164;2023-04-08T00:27:39;98986.38;;;4.28
77414;BMP280;66486;49.992;19.164;2023-04-08T00:30:06;98986.84;;;4.37
77414;BMP280;66486;49.992;19.164;2023-04-08T00:32:32;98992.47;;;4.61
77414;BMP280;66486;49.992;19.164;2023-04-08T00:34:58;98993.06;;;4.48
77414;BMP280;66486;49.992;19.164;2023-04-08T00:37:24;98996.16;;;4.20
77414;BMP280;66486;49.992;19.164;2023-04-08T00:39:50;98994.16;;;4.10
77414;BMP280;66486;49.992;19.164;2023-04-08T00:42:18;98996.16;;;4.20
77414;BMP280;66486;49.992;19.164;2023-04-08T00:44:45;98989.84;;;4.02
77414;BMP280;66486;49.992;19.164;2023-04-08T00:47:13;98997.53;;;4.07
77414;BMP280;66486;49.992;19.164;2023-04-08T00:49:39;98996.44;;;4.11
77414;BMP280;66486;49.992;19.164;2023-04-08T00:52:05;98999.69;;;4.28
77414;BMP280;66486;49.992;19.164;2023-04-08T00:54:31;98993.81;;;4.15
77414;BMP280;66486;49.992;19.164;2023-04-08T00:56:57;98996.72;;;4.03
77414;BMP280;66486;49.992;19.164;2023-04-08T00:59:28;98997.34;;;3.93
77414;BMP280;66486;49.992;19.164;2023-04-08T01:02:06;99010.59;;;3.89
77414;BMP280;66486;49.992;19.164;2023-04-08T01:04:52;99014.59;;;3.76
77414;BMP280;66486;49.992;19.164;2023-04-08T01:07:24;99011.81;;;3.95
77414;BMP280;66486;49.992;19.164;2023-04-08T01:09:54;99010.09;;;3.80
77414;BMP280;66486;49.992;19.164;2023-04-08T01:12:25;99015.97;;;3.93
77414;BMP280;66486;49.992;19.164;2023-04-08T01:14:58;99014.75;;;3.87
77414;BMP280;66486;49.992;19.164;2023-04-08T01:17:25;99019.34;;;3.90
77414;BMP280;66486;49.992;19.164;2023-04-08T01:19:53;99015.31;;;3.99
77414;BMP280;66486;49.992;19.164;2023-04-08T01:25:31;99016.13;;;3.77
77414;BMP280;66486;49.992;19.164;2023-04-08T01:27:59;99015.53;;;3.87
77414;BMP280;66486;49.992;19.164;2023-04-08T01:30:27;99011.06;;;3.69
77414;BMP280;66486;49.992;19.164;2023-04-08T01:32:55;99025.25;;;3.53
77414;BMP280;66486;49.992;19.164;2023-04-08T01:35:23;98994.38;;;3.45
77414;BMP280;66486;49.992;19.164;2023-04-08T01:37:50;99020.69;;;3.77
77414;BMP280;66486;49.992;19.164;2023-04-08T01:40:18;99021.31;;;3.67
77414;BMP280;66486;49.992;19.164;2023-04-08T01:42:48;99018.16;;;3.61
77414;BMP280;66486;49.992;19.164;2023-04-08T01:45:16;99021.75;;;3.72
77414;BMP280;66486;49.992;19.164;2023-04-08T01:47:44;99026.28;;;3.72
77414;BMP280;66486;49.992;19.164;2023-04-08T01:50:12;99030.22;;;4.07
77414;BMP280;66486;49.992;19.164;2023-04-08T01:52:40;99036.78;;;3.61
77414;BMP280;66486;49.992;19.164;2023-04-08T01:55:08;99035.44;;;3.74
77414;BMP280;66486;49.992;19.164;2023-04-08T01:57:36;99039.94;;;3.67
77414;BMP280;66486;49.992;19.164;2023-04-08T02:00:06;99039.16;;;3.66
77414;BMP280;66486;49.992;19.164;2023-04-08T02:02:35;99044.88;;;3.68
77414;BMP280;66486;49.992;19.164;2023-04-08T02:05:03;99037.16;;;3.37
77414;BMP280;66486;49.992;19.164;2023-04-08T02:07:29;99032.69;;;3.41
77414;BMP280;66486;49.992;19.164;2023-04-08T02:09:55;99042.44;;;3.59
77414;BMP280;66486;49.992;19.164;2023-04-08T02:12:21;99046.03;;;3.44
77414;BMP280;66486;49.992;19.164;2023-04-08T02:14:48;99051.63;;;3.62
77414;BMP280;66486;49.992;19.164;2023-04-08T02:17:22;99050.16;;;3.42
77414;BMP280;66486;49.992;19.164;2023-04-08T02:20:02;99046.91;;;3.52
77414;BMP280;66486;49.992;19.164;2023-04-08T02:22:39;99051.50;;;3.55
77414;BMP280;66486;49.992;19.164;2023-04-08T02:25:13;99049.13;;;3.50
77414;BMP280;66486;49.992;19.164;2023-04-08T02:27:41;99028.16;;;3.45
77414;BMP280;66486;49.992;19.164;2023-04-08T02:30:10;99052.75;;;3.38
77414;BMP280;66486;49.992;19.164;2023-04-08T02:32:36;99036.34;;;3.33
77414;BMP280;66486;49.992;19.164;2023-04-08T02:35:04;99051.44;;;3.51
77414;BMP280;66486;49.992;19.164;2023-04-08T02:37:31;99057.00;;;3.20
77414;BMP280;66486;49.992;19.164;2023-04-08T02:39:58;99057.72;;;3.17
77414;BMP280;66486;49.992;19.164;2023-04-08T02:42:23;99051.69;;;3.20
77414;BMP280;66486;49.992;19.164;2023-04-08T02:44:50;99050.81;;;3.35
77414;BMP280;66486;49.992;19.164;2023-04-08T02:47:16;99059.22;;;3.37
77414;BMP280;66486;49.992;19.164;2023-04-08T02:49:42;99061.56;;;3.42
77414;BMP280;66486;49.992;19.164;2023-04-08T02:52:08;99054.09;;;3.29
77414;BMP280;66486;49.992;19.164;2023-04-08T02:54:35;99066.91;;;3.23
77414;BMP280;66486;49.992;19.164;2023-04-08T02:57:01;99056.94;;;3.39
77414;BMP280;66486;49.992;19.164;2023-04-08T02:59:27;99067.75;;;3.27
77414;BMP280;66486;49.992;19.164;2023-04-08T03:01:53;99070.84;;;3.29
77414;BMP280;66486;49.992;19.164;2023-04-08T03:04:19;99071.84;;;3.21
77414;BMP280;66486;49.992;19.164;2023-04-08T03:06:45;99076.31;;;3.17
77414;BMP280;66486;49.992;19.164;2023-04-08T03:09:11;99063.13;;;3.24
77414;BMP280;66486;49.992;19.164;2023-04-08T03:11:37;99077.31;;;3.32
77414;BMP280;66486;49.992;19.164;2023-04-08T03:14:03;99069.88;;;3.18
77414;BMP280;66486;49.992;19.164;2023-04-08T03:16:29;99075.97;;;2.99
77414;BMP280;66486;49.992;19.164;2023-04-08T03:18:55;99076.91;;;2.88
77414;BMP280;66486;49.992;19.164;2023-04-08T03:21:21;99077.31;;;2.90
77414;BMP280;66486;49.992;19.164;2023-04-08T03:23:47;99078.16;;;2.75
77414;BMP280;66486;49.992;19.164;2023-04-08T03:26:13;99077.69;;;2.88
77414;BMP280;66486;49.992;19.164;2023-04-08T03:28:39;99081.94;;;2.93
77414;BMP280;66486;49.992;19.164;2023-04-08T03:31:05;99083.13;;;2.76
77414;BMP280;66486;49.992;19.164;2023-04-08T03:33:31;99072.16;;;2.59
77414;BMP280;66486;49.992;19.164;2023-04-08T03:35:57;99078.50;;;2.73
77414;BMP280;66486;49.992;19.164;2023-04-08T03:38:23;99078.03;;;2.68
77414;BMP280;66486;49.992;19.164;2023-04-08T03:40:49;99068.84;;;2.65
77414;BMP280;66486;49.992;19.164;2023-04-08T03:43:15;99081.00;;;2.66
77414;BMP280;66486;49.992;19.164;2023-04-08T03:45:41;99081.22;;;2.77
77414;BMP280;66486;49.992;19.164;2023-04-08T03:48:07;99088.50;;;2.99
77414;BMP280;66486;49.992;19.164;2023-04-08T03:50:33;99087.84;;;3.05
77414;BMP280;66486;49.992;19.164;2023-04-08T03:52:59;99095.75;;;3.02
77414;BMP280;66486;49.992;19.164;2023-04-08T03:55:25;99095.50;;;3.07
77414;BMP280;66486;49.992;19.164;2023-04-08T03:57:51;99098.34;;;2.98
77414;BMP280;66486;49.992;19.164;2023-04-08T04:00:17;99098.91;;;3.08
77414;BMP280;66486;49.992;19.164;2023-04-08T04:02:43;99108.47;;;3.12
77414;BMP280;66486;49.992;19.164;2023-04-08T04:05:09;99099.81;;;2.96
77414;BMP280;66486;49.992;19.164;2023-04-08T04:07:35;99114.09;;;2.88
77414;BMP280;66486;49.992;19.164;2023-04-08T04:10:01;99119.31;;;2.65
77414;BMP280;66486;49.992;19.164;2023-04-08T04:12:27;99109.09;;;2.48
77414;BMP280;66486;49.992;19.164;2023-04-08T04:14:53;99117.41;;;2.66
77414;BMP280;66486;49.992;19.164;2023-04-08T04:17:20;99117.72;;;2.80
77414;BMP280;66486;49.992;19.164;2023-04-08T04:19:46;99120.75;;;2.78
77414;BMP280;66486;49.992;19.164;2023-04-08T04:22:12;99124.25;;;2.47
77414;BMP280;66486;49.992;19.164;2023-04-08T04:24:38;99137.19;;;2.49
77414;BMP280;66486;49.992;19.164;2023-04-08T04:27:04;99132.75;;;2.37
77414;BMP280;66486;49.992;19.164;2023-04-08T04:29:30;99132.63;;;2.49
77414;BMP280;66486;49.992;19.164;2023-04-08T04:31:56;99129.75;;;2.74
77414;BMP280;66486;49.992;19.164;2023-04-08T04:34:22;99127.94;;;2.78
77414;BMP280;66486;49.992;19.164;2023-04-08T04:36:48;99133.31;;;3.20
77414;BMP280;66486;49.992;19.164;2023-04-08T04:39:14;99146.94;;;2.99
77414;BMP280;66486;49.992;19.164;2023-04-08T04:41:41;99149.09;;;2.93
77414;BMP280;66486;49.992;19.164;2023-04-08T04:44:06;99154.50;;;2.97
77414;BMP280;66486;49.992;19.164;2023-04-08T04:46:32;99165.81;;;2.94
77414;BMP280;66486;49.992;19.164;2023-04-08T04:48:58;99150.09;;;2.50
77414;BMP280;66486;49.992;19.164;2023-04-08T04:51:24;99147.28;;;2.59
77414;BMP280;66486;49.992;19.164;2023-04-08T04:53:51;99157.94;;;2.63
77414;BMP280;66486;49.992;19.164;2023-04-08T04:56:17;99159.91;;;2.66
77414;BMP280;66486;49.992;19.164;2023-04-08T04:58:43;99158.03;;;2.66
77414;BMP280;66486;49.992;19.164;2023-04-08T05:01:09;99161.16;;;2.72
77414;BMP280;66486;49.992;19.164;2023-04-08T05:03:35;99161.94;;;2.53
77414;BMP280;66486;49.992;19.164;2023-04-08T05:06:01;99158.34;;;2.65
77414;BMP280;66486;49.992;19.164;2023-04-08T05:08:27;99155.03;;;2.68
77414;BMP280;66486;49.992;19.164;2023-04-08T05:10:53;99161.66;;;2.58
77414;BMP280;66486;49.992;19.164;2023-04-08T05:13:20;99169.69;;;2.62
77414;BMP280;66486;49.992;19.164;2023-04-08T05:15:46;99172.44;;;2.49
77414;BMP280;66486;49.992;19.164;2023-04-08T05:18:12;99182.41;;;2.72
77414;BMP280;66486;49.992;19.164;2023-04-08T05:20:38;99182.66;;;2.47
77414;BMP280;66486;49.992;19.164;2023-04-08T05:23:04;99193.09;;;2.40
77414;BMP280;66486;49.992;19.164;2023-04-08T05:25:30;99189.91;;;2.35
77414;BMP280;66486;49.992;19.164;2023-04-08T05:27:56;99194.66;;;2.41
77414;BMP280;66486;49.992;19.164;2023-04-08T05:30:22;99192.84;;;2.45
77414;BMP280;66486;49.992;19.164;2023-04-08T05:32:48;99197.63;;;2.56
77414;BMP280;66486;49.992;19.164;2023-04-08T05:35:14;99197.56;;;2.36
77414;BMP280;66486;49.992;19.164;2023-04-08T05:37:40;99189.88;;;2.66
77414;BMP280;66486;49.992;19.164;2023-04-08T05:40:07;99201.75;;;2.53
77414;BMP280;66486;49.992;19.164;2023-04-08T05:42:32;99209.13;;;2.79
77414;BMP280;66486;49.992;19.164;2023-04-08T05:44:59;99201.00;;;2.87
77414;BMP280;66486;49.992;19.164;2023-04-08T05:47:25;99204.19;;;2.77
77414;BMP280;66486;49.992;19.164;2023-04-08T05:49:51;99215.75;;;2.85
77414;BMP280;66486;49.992;19.164;2023-04-08T05:52:17;99217.31;;;2.70
77414;BMP280;66486;49.992;19.164;2023-04-08T05:54:44;99228.66;;;2.51
77414;BMP280;66486;49.992;19.164;2023-04-08T05:57:10;99224.59;;;2.58
77414;BMP280;66486;49.992;19.164;2023-04-08T05:59:36;99224.97;;;2.91
77414;BMP280;66486;49.992;19.164;2023-04-08T06:02:02;99220.44;;;2.91
77414;BMP280;66486;49.992;19.164;2023-04-08T06:04:28;99225.34;;;3.28
77414;BMP280;66486;49.992;19.164;2023-04-08T06:06:54;99229.44;;;3.41
77414;BMP280;66486;49.992;19.164;2023-04-08T06:09:25;99231.44;;;3.28
77414;BMP280;66486;49.992;19.164;2023-04-08T06:11:51;99222.06;;;3.53
77414;BMP280;66486;49.992;19.164;2023-04-08T06:14:17;99235.84;;;3.59
77414;BMP280;66486;49.992;19.164;2023-04-08T06:16:43;99234.44;;;3.65
77414;BMP280;66486;49.992;19.164;2023-04-08T06:19:09;99234.78;;;3.64
77414;BMP280;66486;49.992;19.164;2023-04-08T06:21:35;99231.44;;;3.67
77414;BMP280;66486;49.992;19.164;2023-04-08T06:24:01;99235.41;;;3.57
77414;BMP280;66486;49.992;19.164;2023-04-08T06:26:27;99227.06;;;3.78
77414;BMP280;66486;49.992;19.164;2023-04-08T06:28:53;99229.16;;;3.88
77414;BMP280;66486;49.992;19.164;2023-04-08T06:31:19;99228.56;;;3.98
77414;BMP280;66486;49.992;19.164;2023-04-08T06:33:45;99248.56;;;4.11
77414;BMP280;66486;49.992;19.164;2023-04-08T06:36:11;99249.56;;;4.26
77414;BMP280;66486;49.992;19.164;2023-04-08T06:38:38;99243.03;;;4.00
77414;BMP280;66486;49.992;19.164;2023-04-08T06:41:05;99253.97;;;3.53
77414;BMP280;66486;49.992;19.164;2023-04-08T06:43:34;99260.03;;;3.73
77414;BMP280;66486;49.992;19.164;2023-04-08T06:46:02;99259.28;;;3.92
77414;BMP280;66486;49.992;19.164;2023-04-08T06:48:28;99267.22;;;4.14
77414;BMP280;66486;49.992;19.164;2023-04-08T06:50:58;99272.50;;;4.11
77414;BMP280;66486;49.992;19.164;2023-04-08T06:53:25;99271.84;;;3.95
77414;BMP280;66486;49.992;19.164;2023-04-08T06:55:52;99270.19;;;3.87
77414;BMP280;66486;49.992;19.164;2023-04-08T06:58:18;99270.34;;;3.97
77414;BMP280;66486;49.992;19.164;2023-04-08T07:00:44;99271.06;;;3.94
77414;BMP280;66486;49.992;19.164;2023-04-08T07:03:10;99259.94;;;3.89
77414;BMP280;66486;49.992;19.164;2023-04-08T07:05:36;99285.19;;;4.18
77414;BMP280;66486;49.992;19.164;2023-04-08T07:08:04;99278.66;;;4.15
77414;BMP280;66486;49.992;19.164;2023-04-08T07:10:30;99278.38;;;4.20
77414;BMP280;66486;49.992;19.164;2023-04-08T07:12:56;99288.06;;;4.54
77414;BMP280;66486;49.992;19.164;2023-04-08T07:15:22;99281.03;;;4.43
77414;BMP280;66486;49.992;19.164;2023-04-08T07:17:48;99292.28;;;4.82
77414;BMP280;66486;49.992;19.164;2023-04-08T07:20:14;99281.41;;;4.94
77414;BMP280;66486;49.992;19.164;2023-04-08T07:22:41;99296.78;;;5.34
77414;BMP280;66486;49.992;19.164;2023-04-08T07:25:07;99296.84;;;5.37
77414;BMP280;66486;49.992;19.164;2023-04-08T07:27:34;99293.06;;;5.38
77414;BMP280;66486;49.992;19.164;2023-04-08T07:30:01;99302.03;;;5.27
77414;BMP280;66486;49.992;19.164;2023-04-08T07:32:27;99305.56;;;5.34
77414;BMP280;66486;49.992;19.164;2023-04-08T07:34:53;99294.81;;;5.27
77414;BMP280;66486;49.992;19.164;2023-04-08T07:37:19;99306.91;;;5.21
77414;BMP280;66486;49.992;19.164;2023-04-08T07:39:45;99310.06;;;5.60
77414;BMP280;66486;49.992;19.164;2023-04-08T07:42:11;99307.53;;;5.70
77414;BMP280;66486;49.992;19.164;2023-04-08T07:44:37;99302.84;;;5.60
77414;BMP280;66486;49.992;19.164;2023-04-08T07:47:03;99303.72;;;5.71
77414;BMP280;66486;49.992;19.164;2023-04-08T07:49:29;99305.03;;;5.88
77414;BMP280;66486;49.992;19.164;2023-04-08T07:51:55;99297.91;;;6.03
77414;BMP280;66486;49.992;19.164;2023-04-08T07:54:22;99305.06;;;5.92
77414;BMP280;66486;49.992;19.164;2023-04-08T07:56:48;99305.94;;;6.03
77414;BMP280;66486;49.992;19.164;2023-04-08T07:59:13;99302.84;;;5.97
77414;BMP280;66486;49.992;19.164;2023-04-08T08:01:40;99306.75;;;6.07
77414;BMP280;66486;49.992;19.164;2023-04-08T08:04:05;99306.13;;;6.24
77414;BMP280;66486;49.992;19.164;2023-04-08T08:06:32;99309.03;;;6.49
77414;BMP280;66486;49.992;19.164;2023-04-08T08:08:58;99307.06;;;6.46
77414;BMP280;66486;49.992;19.164;2023-04-08T08:11:25;99301.09;;;6.63
77414;BMP280;66486;49.992;19.164;2023-04-08T08:13:52;99303.13;;;6.80
77414;BMP280;66486;49.992;19.164;2023-04-08T08:16:19;99300.75;;;6.71
77414;BMP280;66486;49.992;19.164;2023-04-08T08:18:44;99304.06;;;6.54
77414;BMP280;66486;49.992;19.164;2023-04-08T08:21:11;99304.47;;;6.56
77414;BMP280;66486;49.992;19.164;2023-04-08T08:23:36;99303.72;;;6.52
77414;BMP280;66486;49.992;19.164;2023-04-08T08:26:05;99305.66;;;6.59
77414;BMP280;66486;49.992;19.164;2023-04-08T08:28:32;99312.91;;;6.62
77414;BMP280;66486;49.992;19.164;2023-04-08T08:30:58;99310.28;;;6.65
77414;BMP280;66486;49.992;19.164;2023-04-08T08:33:24;99303.88;;;6.80
77414;BMP280;66486;49.992;19.164;2023-04-08T08:35:51;99315.59;;;7.30
77414;BMP280;66486;49.992;19.164;2023-04-08T08:38:17;99308.56;;;6.97
77414;BMP280;66486;49.992;19.164;2023-04-08T08:40:44;99326.03;;;7.67
77414;BMP280;66486;49.992;19.164;2023-04-08T08:43:10;99321.13;;;7.73
77414;BMP280;66486;49.992;19.164;2023-04-08T08:45:40;99326.16;;;8.02
77414;BMP280;66486;49.992;19.164;2023-04-08T08:48:06;99338.78;;;8.23
77414;BMP280;66486;49.992;19.164;2023-04-08T08:50:36;99339.53;;;8.52
77414;BMP280;66486;49.992;19.164;2023-04-08T08:53:02;99334.19;;;8.52
77414;BMP280;66486;49.992;19.164;2023-04-08T08:55:31;99336.09;;;8.44
77414;BMP280;66486;49.992;19.164;2023-04-08T08:58:01;99326.16;;;8.45
77414;BMP280;66486;49.992;19.164;2023-04-08T09:00:38;99330.72;;;8.51
77414;BMP280;66486;49.992;19.164;2023-04-08T09:03:30;99333.03;;;8.21
77414;BMP280;66486;49.992;19.164;2023-04-08T09:05:58;99323.84;;;8.26
77414;BMP280;66486;49.992;19.164;2023-04-08T09:08:29;99336.09;;;8.34
77414;BMP280;66486;49.992;19.164;2023-04-08T09:11:18;99338.75;;;8.83
77414;BMP280;66486;49.992;19.164;2023-04-08T09:13:46;99348.34;;;8.66
77414;BMP280;66486;49.992;19.164;2023-04-08T09:16:17;99344.88;;;8.77
77414;BMP280;66486;49.992;19.164;2023-04-08T09:18:49;99333.63;;;9.20
77414;BMP280;66486;49.992;19.164;2023-04-08T09:21:29;99351.03;;;9.78
77414;BMP280;66486;49.992;19.164;2023-04-08T09:23:58;99347.50;;;9.88
77414;BMP280;66486;49.992;19.164;2023-04-08T09:26:24;99345.69;;;9.71
77414;BMP280;66486;49.992;19.164;2023-04-08T09:29:20;99346.03;;;9.73
77414;BMP280;66486;49.992;19.164;2023-04-08T09:32:02;99331.59;;;9.49
77414;BMP280;66486;49.992;19.164;2023-04-08T09:34:28;99355.97;;;9.83
77414;BMP280;66486;49.992;19.164;2023-04-08T09:36:57;99357.94;;;9.72
77414;BMP280;66486;49.992;19.164;2023-04-08T09:39:23;99356.28;;;9.23
77414;BMP280;66486;49.992;19.164;2023-04-08T09:41:50;99364.69;;;9.25
77414;BMP280;66486;49.992;19.164;2023-04-08T09:44:17;99359.31;;;9.28
77414;BMP280;66486;49.992;19.164;2023-04-08T09:49:28;99357.88;;;9.82
77414;BMP280;66486;49.992;19.164;2023-04-08T09:52:20;99362.13;;;10.35
77414;BMP280;66486;49.992;19.164;2023-04-08T09:54:54;99362.72;;;10.05
77414;BMP280;66486;49.992;19.164;2023-04-08T09:57:39;99367.13;;;9.85
77414;BMP280;66486;49.992;19.164;2023-04-08T10:00:18;99362.28;;;10.17
77414;BMP280;66486;49.992;19.164;2023-04-08T10:05:36;99352.50;;;10.78
77414;BMP280;66486;49.992;19.164;2023-04-08T10:08:04;99359.03;;;11.11
77414;BMP280;66486;49.992;19.164;2023-04-08T10:10:33;99356.84;;;11.02
77414;BMP280;66486;49.992;19.164;2023-04-08T10:13:00;99352.56;;;11.08
77414;BMP280;66486;49.992;19.164;2023-04-08T10:15:31;99348.09;;;11.25
77414;BMP280;66486;49.992;19.164;2023-04-08T10:23:00;99350.50;;;11.76
77414;BMP280;66486;49.992;19.164;2023-04-08T10:25:31;99356.28;;;11.48
77414;BMP280;66486;49.992;19.164;2023-04-08T10:28:01;99369.69;;;10.91
77414;BMP280;66486;49.992;19.164;2023-04-08T10:32:54;99356.47;;;11.64
77414;BMP280;66486;49.992;19.164;2023-04-08T10:37:57;99356.16;;;12.55
77414;BMP280;66486;49.992;19.164;2023-04-08T10:40:23;99357.06;;;12.88
77414;BMP280;66486;49.992;19.164;2023-04-08T10:42:59;99362.91;;;12.43
77414;BMP280;66486;49.992;19.164;2023-04-08T10:45:25;99362.91;;;11.70
77414;BMP280;66486;49.992;19.164;2023-04-08T10:47:51;99362.41;;;11.52
77414;BMP280;66486;49.992;19.164;2023-04-08T10:50:18;99366.13;;;11.62
77414;BMP280;66486;49.992;19.164;2023-04-08T10:52:47;99357.72;;;11.26
77414;BMP280;66486;49.992;19.164;2023-04-08T10:55:12;99355.69;;;11.34
77414;BMP280;66486;49.992;19.164;2023-04-08T10:57:39;99361.44;;;11.05
77414;BMP280;66486;49.992;19.164;2023-04-08T11:00:11;99366.78;;;10.72
77414;BMP280;66486;49.992;19.164;2023-04-08T11:02:37;99355.63;;;10.77
77414;BMP280;66486;49.992;19.164;2023-04-08T11:05:03;99358.84;;;10.95
77414;BMP280;66486;49.992;19.164;2023-04-08T11:07:29;99351.34;;;11.13
77414;BMP280;66486;49.992;19.164;2023-04-08T11:09:55;99353.28;;;11.43
77414;BMP280;66486;49.992;19.164;2023-04-08T11:12:22;99350.50;;;11.19
77414;BMP280;66486;49.992;19.164;2023-04-08T11:14:48;99353.25;;;11.46
77414;BMP280;66486;49.992;19.164;2023-04-08T11:17:17;99364.34;;;11.18
77414;BMP280;66486;49.992;19.164;2023-04-08T11:19:44;99358.00;;;11.35
77414;BMP280;66486;49.992;19.164;2023-04-08T11:22:11;99357.94;;;11.08
77414;BMP280;66486;49.992;19.164;2023-04-08T11:24:38;99355.25;;;11.08
77414;BMP280;66486;49.992;19.164;2023-04-08T11:27:04;99355.59;;;11.10
77414;BMP280;66486;49.992;19.164;2023-04-08T11:29:33;99356.84;;;11.32
77414;BMP280;66486;49.992;19.164;2023-04-08T11:32:00;99343.81;;;11.31
77414;BMP280;66486;49.992;19.164;2023-04-08T11:34:26;99354.50;;;11.38
77414;BMP280;66486;49.992;19.164;2023-04-08T11:36:52;99346.41;;;11.68
77414;BMP280;66486;49.992;19.164;2023-04-08T11:39:21;99354.78;;;11.74
77414;BMP280;66486;49.992;19.164;2023-04-08T11:41:48;99359.38;;;12.00
77414;BMP280;66486;49.992;19.164;2023-04-08T11:44:14;99359.06;;;11.94
77414;BMP280;66486;49.992;19.164;2023-04-08T11:46:51;99358.59;;;11.50
77414;BMP280;66486;49.992;19.164;2023-04-08T11:49:19;99347.97;;;11.05
77414;BMP280;66486;49.992;19.164;2023-04-08T11:51:56;99352.00;;;11.24
77414;BMP280;66486;49.992;19.164;2023-04-08T11:54:33;99354.84;;;11.10
77414;BMP280;66486;49.992;19.164;2023-04-08T11:56:59;99347.09;;;11.15
77414;BMP280;66486;49.992;19.164;2023-04-08T11:59:25;99351.72;;;11.45
77414;BMP280;66486;49.992;19.164;2023-04-08T12:01:51;99349.50;;;11.37
77414;BMP280;66486;49.992;19.164;2023-04-08T12:04:17;99351.31;;;10.79
77414;BMP280;66486;49.992;19.164;2023-04-08T12:06:44;99351.25;;;10.49
77414;BMP280;66486;49.992;19.164;2023-04-08T12:09:12;99350.25;;;10.73
77414;BMP280;66486;49.992;19.164;2023-04-08T12:11:38;99349.31;;;10.90
77414;BMP280;66486;49.992;19.164;2023-04-08T12:14:04;99369.16;;;10.70
77414;BMP280;66486;49.992;19.164;2023-04-08T12:16:30;99371.00;;;10.76
77414;BMP280;66486;49.992;19.164;2023-04-08T12:18:56;99354.91;;;10.69
77414;BMP280;66486;49.992;19.164;2023-04-08T12:21:22;99353.94;;;10.49
77414;BMP280;66486;49.992;19.164;2023-04-08T12:23:49;99363.81;;;10.18
77414;BMP280;66486;49.992;19.164;2023-04-08T12:26:16;99360.34;;;10.18
77414;BMP280;66486;49.992;19.164;2023-04-08T12:28:42;99356.38;;;10.36
77414;BMP280;66486;49.992;19.164;2023-04-08T12:31:08;99351.91;;;10.60
77414;BMP280;66486;49.992;19.164;2023-04-08T12:33:33;99362.53;;;10.74
77414;BMP280;66486;49.992;19.164;2023-04-08T12:36:00;99364.22;;;10.61
77414;BMP280;66486;49.992;19.164;2023-04-08T12:38:26;99357.03;;;10.47
77414;BMP280;66486;49.992;19.164;2023-04-08T12:40:53;99366.50;;;10.62
77414;BMP280;66486;49.992;19.164;2023-04-08T12:43:19;99354.16;;;9.69
77414;BMP280;66486;49.992;19.164;2023-04-08T12:45:45;99358.09;;;9.47
77414;BMP280;66486;49.992;19.164;2023-04-08T12:48:11;99366.13;;;9.47
77414;BMP280;66486;49.992;19.164;2023-04-08T12:50:37;99357.38;;;9.32
77414;BMP280;66486;49.992;19.164;2023-04-08T12:53:04;99374.94;;;9.55
77414;BMP280;66486;49.992;19.164;2023-04-08T12:55:30;99360.50;;;9.06
77414;BMP280;66486;49.992;19.164;2023-04-08T12:57:55;99369.38;;;8.93
77414;BMP280;66486;49.992;19.164;2023-04-08T13:00:22;99365.88;;;9.13
77414;BMP280;66486;49.992;19.164;2023-04-08T13:02:47;99369.72;;;9.02
77414;BMP280;66486;49.992;19.164;2023-04-08T13:05:14;99379.63;;;9.29
77414;BMP280;66486;49.992;19.164;2023-04-08T13:07:40;99374.69;;;9.07
77414;BMP280;66486;49.992;19.164;2023-04-08T13:10:07;99377.34;;;9.24
77414;BMP280;66486;49.992;19.164;2023-04-08T13:12:33;99378.06;;;9.35
77414;BMP280;66486;49.992;19.164;2023-04-08T13:14:59;99380.34;;;9.48
77414;BMP280;66486;49.992;19.164;2023-04-08T13:17:26;99381.47;;;9.43
77414;BMP280;66486;49.992;19.164;2023-04-08T13:19:52;99380.78;;;9.32
77414;BMP280;66486;49.992;19.164;2023-04-08T13:22:18;99379.56;;;9.51
77414;BMP280;66486;49.992;19.164;2023-04-08T13:24:44;99390.69;;;9.53
77414;BMP280;66486;49.992;19.164;2023-04-08T13:27:11;99389.97;;;9.31
77414;BMP280;66486;49.992;19.164;2023-04-08T13:29:37;99395.78;;;9.19
77414;BMP280;66486;49.992;19.164;2023-04-08T13:32:03;99390.47;;;9.01
77414;BMP280;66486;49.992;19.164;2023-04-08T13:34:29;99394.31;;;8.79
77414;BMP280;66486;49.992;19.164;2023-04-08T13:36:55;99395.84;;;8.69
77414;BMP280;66486;49.992;19.164;2023-04-08T13:39:22;99395.47;;;8.82
77414;BMP280;66486;49.992;19.164;2023-04-08T13:41:47;99389.31;;;8.92
77414;BMP280;66486;49.992;19.164;2023-04-08T13:44:14;99394.25;;;9.07
77414;BMP280;66486;49.992;19.164;2023-04-08T13:46:41;99390.81;;;9.07
77414;BMP280;66486;49.992;19.164;2023-04-08T13:49:07;99387.00;;;9.01
77414;BMP280;66486;49.992;19.164;2023-04-08T13:51:34;99382.75;;;9.10
77414;BMP280;66486;49.992;19.164;2023-04-08T13:54:00;99394.25;;;9.07
77414;BMP280;66486;49.992;19.164;2023-04-08T13:56:26;99384.63;;;9.17
77414;BMP280;66486;49.992;19.164;2023-04-08T13:58:52;99392.28;;;9.32
77414;BMP280;66486;49.992;19.164;2023-04-08T14:01:18;99389.22;;;9.34
77414;BMP280;66486;49.992;19.164;2023-04-08T14:03:44;99391.94;;;9.30
77414;BMP280;66486;49.992;19.164;2023-04-08T14:06:10;99386.19;;;9.21
77414;BMP280;66486;49.992;19.164;2023-04-08T14:08:36;99386.59;;;9.23
77414;BMP280;66486;49.992;19.164;2023-04-08T14:11:02;99382.34;;;9.22
77414;BMP280;66486;49.992;19.164;2023-04-08T14:13:28;99391.97;;;9.06
77414;BMP280;66486;49.992;19.164;2023-04-08T14:15:54;99383.97;;;8.81
77414;BMP280;66486;49.992;19.164;2023-04-08T14:18:23;99387.00;;;9.01
77414;BMP280;66486;49.992;19.164;2023-04-08T14:20:48;99386.59;;;9.13
77414;BMP280;66486;49.992;19.164;2023-04-08T14:23:14;99388.91;;;9.11
77414;BMP280;66486;49.992;19.164;2023-04-08T14:25:41;99377.75;;;9.16